Terminal Aerodrome Forecast
Issued by NWS

Current Version | Previous Version | Graphics & Text | Print | Product List | Glossary On
Versions: 1 2 3 4 5 6 7 8 9 10 11 12 13 14 15 16 17 18 19 20 21 22 23 24 25
000
FTUS41 KILN 201121
TAFLUK
TAF
KLUK 201121Z 2012/2112 00000KT 2SM BR SCT002
     FM201300 VRB03KT P6SM SCT100
     FM201800 22005KT P6SM VCTS BKN040CB
     FM210100 02004KT P6SM VCSH BKN040
     FM210600 02003KT 2SM BR SCT040=

USA.gov is the U.S. government's official web portal to all federal, state and local government web resources and services.